sensor_id;sensor_type;location;lat;lon;timestamp;P1;durP1;ratioP1;P2;durP2;ratioP2
12385;SDS011;6257;57.634;18.310;2024-02-04T00:01:55;14.83;;;2.97;;
12385;SDS011;6257;57.634;18.310;2024-02-04T00:04:23;17.50;;;3.10;;
12385;SDS011;6257;57.634;18.310;2024-02-04T00:06:50;13.33;;;2.57;;
12385;SDS011;6257;57.634;18.310;2024-02-04T00:09:17;10.30;;;2.60;;
12385;SDS011;6257;57.634;18.310;2024-02-04T00:11:44;10.73;;;3.40;;
12385;SDS011;6257;57.634;18.310;2024-02-04T00:14:13;13.30;;;3.23;;
12385;SDS011;6257;57.634;18.310;2024-02-04T00:16:39;14.83;;;2.40;;
12385;SDS011;6257;57.634;18.310;2024-02-04T00:19:06;15.47;;;2.70;;
12385;SDS011;6257;57.634;18.310;2024-02-04T00:21:34;14.60;;;2.80;;
12385;SDS011;6257;57.634;18.310;2024-02-04T00:24:01;14.17;;;2.50;;
12385;SDS011;6257;57.634;18.310;2024-02-04T00:26:28;11.53;;;2.87;;
12385;SDS011;6257;57.634;18.310;2024-02-04T00:28:55;14.77;;;2.77;;
12385;SDS011;6257;57.634;18.310;2024-02-04T00:31:24;8.90;;;2.27;;
12385;SDS011;6257;57.634;18.310;2024-02-04T00:33:51;13.20;;;3.43;;
12385;SDS011;6257;57.634;18.310;2024-02-04T00:36:18;12.20;;;2.70;;
12385;SDS011;6257;57.634;18.310;2024-02-04T00:38:46;12.23;;;2.77;;
12385;SDS011;6257;57.634;18.310;2024-02-04T00:41:13;13.47;;;2.80;;
12385;SDS011;6257;57.634;18.310;2024-02-04T00:43:41;12.37;;;2.70;;
12385;SDS011;6257;57.634;18.310;2024-02-04T00:46:08;15.20;;;2.43;;
12385;SDS011;6257;57.634;18.310;2024-02-04T00:48:37;11.17;;;2.30;;
12385;SDS011;6257;57.634;18.310;2024-02-04T00:51:05;15.20;;;2.53;;
12385;SDS011;6257;57.634;18.310;2024-02-04T00:53:32;17.57;;;3.43;;
12385;SDS011;6257;57.634;18.310;2024-02-04T00:56:00;13.27;;;3.00;;
12385;SDS011;6257;57.634;18.310;2024-02-04T00:58:27;11.67;;;2.27;;
12385;SDS011;6257;57.634;18.310;2024-02-04T01:00:54;14.87;;;2.53;;
12385;SDS011;6257;57.634;18.310;2024-02-04T01:03:22;11.70;;;2.50;;
12385;SDS011;6257;57.634;18.310;2024-02-04T01:05:50;14.67;;;2.97;;
12385;SDS011;6257;57.634;18.310;2024-02-04T01:08:18;13.00;;;2.70;;
12385;SDS011;6257;57.634;18.310;2024-02-04T01:10:45;14.17;;;2.90;;
12385;SDS011;6257;57.634;18.310;2024-02-04T01:13:12;11.70;;;2.07;;
12385;SDS011;6257;57.634;18.310;2024-02-04T01:15:39;13.27;;;2.87;;
12385;SDS011;6257;57.634;18.310;2024-02-04T01:18:06;8.93;;;2.00;;
12385;SDS011;6257;57.634;18.310;2024-02-04T01:20:33;17.03;;;2.87;;
12385;SDS011;6257;57.634;18.310;2024-02-04T01:23:01;13.67;;;2.17;;
12385;SDS011;6257;57.634;18.310;2024-02-04T01:25:29;18.10;;;2.50;;
12385;SDS011;6257;57.634;18.310;2024-02-04T01:27:55;12.83;;;2.87;;
12385;SDS011;6257;57.634;18.310;2024-02-04T01:30:22;10.97;;;2.53;;
12385;SDS011;6257;57.634;18.310;2024-02-04T01:32:49;15.70;;;2.77;;
12385;SDS011;6257;57.634;18.310;2024-02-04T01:35:16;14.57;;;3.17;;
12385;SDS011;6257;57.634;18.310;2024-02-04T01:37:43;12.27;;;2.63;;
12385;SDS011;6257;57.634;18.310;2024-02-04T01:40:15;11.97;;;2.50;;
12385;SDS011;6257;57.634;18.310;2024-02-04T01:42:42;10.77;;;2.70;;
12385;SDS011;6257;57.634;18.310;2024-02-04T01:45:09;9.57;;;2.20;;
12385;SDS011;6257;57.634;18.310;2024-02-04T01:47:36;12.37;;;2.97;;
12385;SDS011;6257;57.634;18.310;2024-02-04T01:50:04;12.07;;;2.83;;
12385;SDS011;6257;57.634;18.310;2024-02-04T01:52:32;14.93;;;2.63;;
12385;SDS011;6257;57.634;18.310;2024-02-04T01:55:02;9.53;;;2.00;;
12385;SDS011;6257;57.634;18.310;2024-02-04T01:57:32;12.33;;;2.53;;
12385;SDS011;6257;57.634;18.310;2024-02-04T02:00:01;15.83;;;3.00;;
12385;SDS011;6257;57.634;18.310;2024-02-04T02:02:29;9.10;;;2.10;;
12385;SDS011;6257;57.634;18.310;2024-02-04T02:04:58;9.03;;;1.90;;
12385;SDS011;6257;57.634;18.310;2024-02-04T02:07:26;9.90;;;2.20;;
12385;SDS011;6257;57.634;18.310;2024-02-04T02:09:53;18.97;;;3.47;;
12385;SDS011;6257;57.634;18.310;2024-02-04T02:12:22;12.57;;;2.87;;
12385;SDS011;6257;57.634;18.310;2024-02-04T02:14:54;12.27;;;2.73;;
12385;SDS011;6257;57.634;18.310;2024-02-04T02:17:28;13.80;;;2.77;;
12385;SDS011;6257;57.634;18.310;2024-02-04T02:20:05;12.40;;;2.50;;
12385;SDS011;6257;57.634;18.310;2024-02-04T02:22:38;10.13;;;2.07;;
12385;SDS011;6257;57.634;18.310;2024-02-04T02:25:12;9.73;;;1.67;;
12385;SDS011;6257;57.634;18.310;2024-02-04T02:27:47;14.03;;;2.50;;
12385;SDS011;6257;57.634;18.310;2024-02-04T02:30:15;12.43;;;2.57;;
12385;SDS011;6257;57.634;18.310;2024-02-04T02:32:43;14.50;;;3.20;;
12385;SDS011;6257;57.634;18.310;2024-02-04T02:35:11;13.30;;;2.60;;
12385;SDS011;6257;57.634;18.310;2024-02-04T02:37:40;11.50;;;2.73;;
12385;SDS011;6257;57.634;18.310;2024-02-04T02:40:14;11.00;;;2.50;;
12385;SDS011;6257;57.634;18.310;2024-02-04T02:42:47;12.83;;;3.00;;
12385;SDS011;6257;57.634;18.310;2024-02-04T02:45:15;15.50;;;2.67;;
12385;SDS011;6257;57.634;18.310;2024-02-04T02:47:43;12.07;;;2.50;;
12385;SDS011;6257;57.634;18.310;2024-02-04T02:50:12;15.57;;;2.90;;
12385;SDS011;6257;57.634;18.310;2024-02-04T02:52:39;8.57;;;2.13;;
12385;SDS011;6257;57.634;18.310;2024-02-04T02:55:06;9.10;;;2.67;;
12385;SDS011;6257;57.634;18.310;2024-02-04T02:57:35;15.87;;;2.67;;
12385;SDS011;6257;57.634;18.310;2024-02-04T03:00:02;10.93;;;2.40;;
12385;SDS011;6257;57.634;18.310;2024-02-04T03:02:31;17.40;;;3.27;;
12385;SDS011;6257;57.634;18.310;2024-02-04T03:04:58;9.47;;;2.30;;
12385;SDS011;6257;57.634;18.310;2024-02-04T03:07:25;16.17;;;2.97;;
12385;SDS011;6257;57.634;18.310;2024-02-04T03:09:52;13.30;;;2.50;;
12385;SDS011;6257;57.634;18.310;2024-02-04T03:12:20;8.87;;;1.97;;
12385;SDS011;6257;57.634;18.310;2024-02-04T03:14:48;15.57;;;3.10;;
12385;SDS011;6257;57.634;18.310;2024-02-04T03:17:15;12.47;;;3.20;;
12385;SDS011;6257;57.634;18.310;2024-02-04T03:19:45;11.83;;;2.60;;
12385;SDS011;6257;57.634;18.310;2024-02-04T03:22:13;12.23;;;2.47;;
12385;SDS011;6257;57.634;18.310;2024-02-04T03:24:40;14.07;;;2.53;;
12385;SDS011;6257;57.634;18.310;2024-02-04T03:27:07;12.53;;;2.80;;
12385;SDS011;6257;57.634;18.310;2024-02-04T03:29:34;15.13;;;2.60;;
12385;SDS011;6257;57.634;18.310;2024-02-04T03:32:03;13.03;;;2.47;;
12385;SDS011;6257;57.634;18.310;2024-02-04T03:34:30;13.60;;;2.90;;
12385;SDS011;6257;57.634;18.310;2024-02-04T03:36:57;11.77;;;2.30;;
12385;SDS011;6257;57.634;18.310;2024-02-04T03:39:24;13.27;;;2.63;;
12385;SDS011;6257;57.634;18.310;2024-02-04T03:41:51;14.80;;;2.77;;
12385;SDS011;6257;57.634;18.310;2024-02-04T03:44:18;12.07;;;3.10;;
12385;SDS011;6257;57.634;18.310;2024-02-04T03:46:47;11.97;;;2.23;;
12385;SDS011;6257;57.634;18.310;2024-02-04T03:49:16;16.03;;;3.20;;
12385;SDS011;6257;57.634;18.310;2024-02-04T03:51:44;12.23;;;2.53;;
12385;SDS011;6257;57.634;18.310;2024-02-04T03:54:11;14.00;;;3.43;;
12385;SDS011;6257;57.634;18.310;2024-02-04T03:56:38;15.17;;;2.57;;
12385;SDS011;6257;57.634;18.310;2024-02-04T03:59:05;13.03;;;2.40;;
12385;SDS011;6257;57.634;18.310;2024-02-04T04:01:36;11.20;;;2.27;;
12385;SDS011;6257;57.634;18.310;2024-02-04T04:04:03;16.60;;;2.87;;
12385;SDS011;6257;57.634;18.310;2024-02-04T04:06:31;10.13;;;2.17;;
12385;SDS011;6257;57.634;18.310;2024-02-04T04:08:58;10.97;;;2.57;;
12385;SDS011;6257;57.634;18.310;2024-02-04T04:11:25;12.63;;;2.90;;
12385;SDS011;6257;57.634;18.310;2024-02-04T04:13:52;17.17;;;3.23;;
12385;SDS011;6257;57.634;18.310;2024-02-04T04:16:20;11.90;;;2.60;;
12385;SDS011;6257;57.634;18.310;2024-02-04T04:18:47;17.60;;;2.97;;
12385;SDS011;6257;57.634;18.310;2024-02-04T04:21:14;12.17;;;2.87;;
12385;SDS011;6257;57.634;18.310;2024-02-04T04:23:43;10.67;;;2.37;;
12385;SDS011;6257;57.634;18.310;2024-02-04T04:26:10;12.17;;;2.03;;
12385;SDS011;6257;57.634;18.310;2024-02-04T04:28:38;13.43;;;2.33;;
12385;SDS011;6257;57.634;18.310;2024-02-04T04:31:05;16.33;;;2.33;;
12385;SDS011;6257;57.634;18.310;2024-02-04T04:33:32;14.47;;;2.53;;
12385;SDS011;6257;57.634;18.310;2024-02-04T04:35:59;15.70;;;2.27;;
12385;SDS011;6257;57.634;18.310;2024-02-04T04:38:26;10.97;;;2.10;;
12385;SDS011;6257;57.634;18.310;2024-02-04T04:40:55;12.90;;;2.47;;
12385;SDS011;6257;57.634;18.310;2024-02-04T04:43:22;13.87;;;3.17;;
12385;SDS011;6257;57.634;18.310;2024-02-04T04:45:49;14.90;;;2.77;;
12385;SDS011;6257;57.634;18.310;2024-02-04T04:48:15;10.23;;;2.73;;
12385;SDS011;6257;57.634;18.310;2024-02-04T04:50:43;15.67;;;2.67;;
12385;SDS011;6257;57.634;18.310;2024-02-04T04:53:11;14.57;;;3.63;;
12385;SDS011;6257;57.634;18.310;2024-02-04T04:55:38;13.43;;;2.57;;
12385;SDS011;6257;57.634;18.310;2024-02-04T04:58:07;13.17;;;2.63;;
12385;SDS011;6257;57.634;18.310;2024-02-04T05:00:33;15.97;;;2.47;;
12385;SDS011;6257;57.634;18.310;2024-02-04T05:03:00;10.13;;;2.47;;
12385;SDS011;6257;57.634;18.310;2024-02-04T05:05:28;11.27;;;2.77;;
12385;SDS011;6257;57.634;18.310;2024-02-04T05:07:55;13.20;;;2.73;;
12385;SDS011;6257;57.634;18.310;2024-02-04T05:10:22;15.83;;;2.67;;
12385;SDS011;6257;57.634;18.310;2024-02-04T05:12:49;11.63;;;2.53;;
12385;SDS011;6257;57.634;18.310;2024-02-04T05:15:18;8.97;;;2.03;;
12385;SDS011;6257;57.634;18.310;2024-02-04T05:17:46;14.30;;;2.37;;
12385;SDS011;6257;57.634;18.310;2024-02-04T05:20:13;15.40;;;3.47;;
12385;SDS011;6257;57.634;18.310;2024-02-04T05:22:40;9.40;;;2.27;;
12385;SDS011;6257;57.634;18.310;2024-02-04T05:25:08;11.13;;;2.50;;
12385;SDS011;6257;57.634;18.310;2024-02-04T05:27:35;13.87;;;2.77;;
12385;SDS011;6257;57.634;18.310;2024-02-04T05:30:03;12.77;;;2.63;;
12385;SDS011;6257;57.634;18.310;2024-02-04T05:32:32;12.90;;;3.10;;
12385;SDS011;6257;57.634;18.310;2024-02-04T05:34:59;13.60;;;2.40;;
12385;SDS011;6257;57.634;18.310;2024-02-04T05:37:26;13.13;;;3.03;;
12385;SDS011;6257;57.634;18.310;2024-02-04T05:39:53;10.43;;;3.20;;
12385;SDS011;6257;57.634;18.310;2024-02-04T05:42:20;15.53;;;2.83;;
12385;SDS011;6257;57.634;18.310;2024-02-04T05:44:47;12.00;;;2.33;;
12385;SDS011;6257;57.634;18.310;2024-02-04T05:47:14;12.93;;;2.67;;
12385;SDS011;6257;57.634;18.310;2024-02-04T05:49:42;14.17;;;2.80;;
12385;SDS011;6257;57.634;18.310;2024-02-04T05:52:11;10.47;;;2.03;;
12385;SDS011;6257;57.634;18.310;2024-02-04T05:54:38;10.70;;;2.37;;
12385;SDS011;6257;57.634;18.310;2024-02-04T05:57:06;10.83;;;2.50;;
12385;SDS011;6257;57.634;18.310;2024-02-04T05:59:33;8.43;;;2.70;;
12385;SDS011;6257;57.634;18.310;2024-02-04T06:02:00;10.67;;;2.43;;
12385;SDS011;6257;57.634;18.310;2024-02-04T06:04:27;13.60;;;2.60;;
12385;SDS011;6257;57.634;18.310;2024-02-04T06:06:56;14.17;;;2.37;;
12385;SDS011;6257;57.634;18.310;2024-02-04T06:09:23;8.67;;;2.17;;
12385;SDS011;6257;57.634;18.310;2024-02-04T06:11:50;9.83;;;2.57;;
12385;SDS011;6257;57.634;18.310;2024-02-04T06:14:17;11.30;;;2.50;;
12385;SDS011;6257;57.634;18.310;2024-02-04T06:16:44;12.80;;;2.40;;
12385;SDS011;6257;57.634;18.310;2024-02-04T06:19:11;10.27;;;2.43;;
12385;SDS011;6257;57.634;18.310;2024-02-04T06:21:39;13.30;;;2.50;;
12385;SDS011;6257;57.634;18.310;2024-02-04T06:24:08;11.10;;;2.47;;
12385;SDS011;6257;57.634;18.310;2024-02-04T06:26:37;10.53;;;2.30;;
12385;SDS011;6257;57.634;18.310;2024-02-04T06:29:04;13.20;;;2.40;;
12385;SDS011;6257;57.634;18.310;2024-02-04T06:31:31;13.37;;;2.50;;
12385;SDS011;6257;57.634;18.310;2024-02-04T06:33:58;15.67;;;2.60;;
12385;SDS011;6257;57.634;18.310;2024-02-04T06:36:26;10.97;;;2.57;;
12385;SDS011;6257;57.634;18.310;2024-02-04T06:38:53;16.80;;;3.00;;
12385;SDS011;6257;57.634;18.310;2024-02-04T06:41:22;11.87;;;4.07;;
12385;SDS011;6257;57.634;18.310;2024-02-04T06:43:49;12.83;;;4.07;;
12385;SDS011;6257;57.634;18.310;2024-02-04T06:46:23;13.57;;;3.40;;
12385;SDS011;6257;57.634;18.310;2024-02-04T06:48:51;15.20;;;2.67;;
12385;SDS011;6257;57.634;18.310;2024-02-04T06:51:18;13.40;;;3.70;;
12385;SDS011;6257;57.634;18.310;2024-02-04T06:53:45;13.77;;;5.00;;
12385;SDS011;6257;57.634;18.310;2024-02-04T06:56:12;13.90;;;2.73;;
12385;SDS011;6257;57.634;18.310;2024-02-04T06:58:41;12.40;;;2.60;;
12385;SDS011;6257;57.634;18.310;2024-02-04T07:01:08;13.53;;;2.50;;
12385;SDS011;6257;57.634;18.310;2024-02-04T07:03:36;11.13;;;2.23;;
12385;SDS011;6257;57.634;18.310;2024-02-04T07:06:03;10.83;;;2.40;;
12385;SDS011;6257;57.634;18.310;2024-02-04T07:08:30;8.37;;;2.03;;
12385;SDS011;6257;57.634;18.310;2024-02-04T07:10:57;12.03;;;2.47;;
12385;SDS011;6257;57.634;18.310;2024-02-04T07:13:24;12.07;;;2.30;;
12385;SDS011;6257;57.634;18.310;2024-02-04T07:15:53;10.83;;;2.40;;
12385;SDS011;6257;57.634;18.310;2024-02-04T07:18:20;13.20;;;3.10;;
12385;SDS011;6257;57.634;18.310;2024-02-04T07:20:48;10.53;;;2.30;;
12385;SDS011;6257;57.634;18.310;2024-02-04T07:23:16;9.83;;;2.27;;
12385;SDS011;6257;57.634;18.310;2024-02-04T07:25:43;12.50;;;2.37;;
12385;SDS011;6257;57.634;18.310;2024-02-04T07:28:10;13.10;;;2.37;;
12385;SDS011;6257;57.634;18.310;2024-02-04T07:30:37;12.93;;;3.03;;
12385;SDS011;6257;57.634;18.310;2024-02-04T07:33:08;14.70;;;2.53;;
12385;SDS011;6257;57.634;18.310;2024-02-04T07:35:35;12.53;;;2.60;;
12385;SDS011;6257;57.634;18.310;2024-02-04T07:38:02;12.50;;;2.63;;
12385;SDS011;6257;57.634;18.310;2024-02-04T07:40:29;10.20;;;2.40;;
12385;SDS011;6257;57.634;18.310;2024-02-04T07:42:56;13.93;;;2.43;;
12385;SDS011;6257;57.634;18.310;2024-02-04T07:45:23;7.60;;;2.17;;
12385;SDS011;6257;57.634;18.310;2024-02-04T07:47:50;12.40;;;2.63;;
12385;SDS011;6257;57.634;18.310;2024-02-04T07:50:19;12.67;;;2.47;;
12385;SDS011;6257;57.634;18.310;2024-02-04T07:52:46;13.33;;;2.30;;
12385;SDS011;6257;57.634;18.310;2024-02-04T07:55:13;10.53;;;2.17;;
12385;SDS011;6257;57.634;18.310;2024-02-04T07:57:41;9.13;;;2.20;;
12385;SDS011;6257;57.634;18.310;2024-02-04T08:00:08;10.43;;;2.50;;
12385;SDS011;6257;57.634;18.310;2024-02-04T08:02:35;10.00;;;2.17;;
12385;SDS011;6257;57.634;18.310;2024-02-04T08:05:03;8.17;;;1.77;;
12385;SDS011;6257;57.634;18.310;2024-02-04T08:07:32;9.83;;;2.17;;
12385;SDS011;6257;57.634;18.310;2024-02-04T08:09:59;10.50;;;2.37;;
12385;SDS011;6257;57.634;18.310;2024-02-04T08:12:26;12.60;;;2.77;;
12385;SDS011;6257;57.634;18.310;2024-02-04T08:14:53;13.60;;;2.70;;
12385;SDS011;6257;57.634;18.310;2024-02-04T08:17:20;12.67;;;2.53;;
12385;SDS011;6257;57.634;18.310;2024-02-04T08:19:47;10.47;;;2.90;;
12385;SDS011;6257;57.634;18.310;2024-02-04T08:22:14;10.60;;;2.40;;
12385;SDS011;6257;57.634;18.310;2024-02-04T08:24:44;14.60;;;3.20;;
12385;SDS011;6257;57.634;18.310;2024-02-04T08:27:12;12.67;;;2.43;;
12385;SDS011;6257;57.634;18.310;2024-02-04T08:29:41;13.63;;;2.30;;
12385;SDS011;6257;57.634;18.310;2024-02-04T08:32:08;8.43;;;2.63;;
12385;SDS011;6257;57.634;18.310;2024-02-04T08:34:36;9.97;;;2.97;;
12385;SDS011;6257;57.634;18.310;2024-02-04T08:37:03;9.20;;;2.73;;
12385;SDS011;6257;57.634;18.310;2024-02-04T08:39:30;9.67;;;2.10;;
12385;SDS011;6257;57.634;18.310;2024-02-04T08:41:58;9.03;;;2.07;;
12385;SDS011;6257;57.634;18.310;2024-02-04T08:44:25;8.47;;;2.10;;
12385;SDS011;6257;57.634;18.310;2024-02-04T08:46:52;10.87;;;1.97;;
12385;SDS011;6257;57.634;18.310;2024-02-04T08:49:20;11.27;;;2.20;;
12385;SDS011;6257;57.634;18.310;2024-02-04T08:51:47;9.40;;;2.30;;
12385;SDS011;6257;57.634;18.310;2024-02-04T08:54:14;8.30;;;2.07;;
12385;SDS011;6257;57.634;18.310;2024-02-04T08:56:42;10.03;;;1.90;;
12385;SDS011;6257;57.634;18.310;2024-02-04T08:59:11;12.07;;;1.80;;
12385;SDS011;6257;57.634;18.310;2024-02-04T09:01:38;7.00;;;2.10;;
12385;SDS011;6257;57.634;18.310;2024-02-04T09:04:05;9.10;;;2.40;;
12385;SDS011;6257;57.634;18.310;2024-02-04T09:06:32;6.20;;;1.70;;
12385;SDS011;6257;57.634;18.310;2024-02-04T09:08:59;7.20;;;1.80;;
12385;SDS011;6257;57.634;18.310;2024-02-04T09:11:26;9.77;;;1.67;;
12385;SDS011;6257;57.634;18.310;2024-02-04T09:13:53;7.87;;;2.00;;
12385;SDS011;6257;57.634;18.310;2024-02-04T09:16:22;11.10;;;2.00;;
12385;SDS011;6257;57.634;18.310;2024-02-04T09:18:49;7.10;;;1.80;;
12385;SDS011;6257;57.634;18.310;2024-02-04T09:21:16;6.93;;;1.50;;
12385;SDS011;6257;57.634;18.310;2024-02-04T09:23:43;6.97;;;1.67;;
12385;SDS011;6257;57.634;18.310;2024-02-04T09:26:10;5.17;;;1.40;;
12385;SDS011;6257;57.634;18.310;2024-02-04T09:28:37;9.70;;;2.13;;
12385;SDS011;6257;57.634;18.310;2024-02-04T09:31:04;8.87;;;1.83;;
12385;SDS011;6257;57.634;18.310;2024-02-04T09:33:35;7.93;;;1.20;;
12385;SDS011;6257;57.634;18.310;2024-02-04T09:36:03;8.70;;;1.30;;
12385;SDS011;6257;57.634;18.310;2024-02-04T09:38:30;4.93;;;1.70;;
12385;SDS011;6257;57.634;18.310;2024-02-04T09:40:57;9.30;;;1.67;;
12385;SDS011;6257;57.634;18.310;2024-02-04T09:43:25;6.77;;;1.27;;
12385;SDS011;6257;57.634;18.310;2024-02-04T09:45:53;9.27;;;1.90;;
12385;SDS011;6257;57.634;18.310;2024-02-04T09:48:20;5.87;;;1.37;;
12385;SDS011;6257;57.634;18.310;2024-02-04T09:50:50;7.27;;;1.60;;
12385;SDS011;6257;57.634;18.310;2024-02-04T09:53:19;3.33;;;1.17;;
12385;SDS011;6257;57.634;18.310;2024-02-04T09:55:52;7.83;;;1.63;;
12385;SDS011;6257;57.634;18.310;2024-02-04T09:58:21;5.17;;;1.13;;
12385;SDS011;6257;57.634;18.310;2024-02-04T10:00:48;6.73;;;1.30;;
12385;SDS011;6257;57.634;18.310;2024-02-04T10:03:17;4.67;;;1.00;;
12385;SDS011;6257;57.634;18.310;2024-02-04T10:05:46;3.57;;;1.10;;
12385;SDS011;6257;57.634;18.310;2024-02-04T10:08:15;4.50;;;1.20;;
12385;SDS011;6257;57.634;18.310;2024-02-04T10:10:42;4.83;;;1.10;;
12385;SDS011;6257;57.634;18.310;2024-02-04T10:13:09;5.00;;;1.33;;
12385;SDS011;6257;57.634;18.310;2024-02-04T10:15:37;5.33;;;1.50;;
12385;SDS011;6257;57.634;18.310;2024-02-04T10:18:04;4.20;;;1.30;;
12385;SDS011;6257;57.634;18.310;2024-02-04T10:20:32;3.30;;;1.00;;
12385;SDS011;6257;57.634;18.310;2024-02-04T10:22:59;4.53;;;1.20;;
12385;SDS011;6257;57.634;18.310;2024-02-04T10:25:28;3.47;;;0.60;;
12385;SDS011;6257;57.634;18.310;2024-02-04T10:27:55;3.37;;;0.90;;
12385;SDS011;6257;57.634;18.310;2024-02-04T10:30:23;3.60;;;1.00;;
12385;SDS011;6257;57.634;18.310;2024-02-04T10:32:50;3.70;;;0.80;;
12385;SDS011;6257;57.634;18.310;2024-02-04T10:35:17;1.67;;;0.60;;
12385;SDS011;6257;57.634;18.310;2024-02-04T10:37:48;2.67;;;0.70;;
12385;SDS011;6257;57.634;18.310;2024-02-04T10:40:15;3.63;;;0.90;;
12385;SDS011;6257;57.634;18.310;2024-02-04T10:42:44;4.47;;;0.97;;
12385;SDS011;6257;57.634;18.310;2024-02-04T10:45:11;3.37;;;1.00;;
12385;SDS011;6257;57.634;18.310;2024-02-04T10:47:42;2.90;;;0.70;;
12385;SDS011;6257;57.634;18.310;2024-02-04T10:50:15;4.13;;;1.20;;
12385;SDS011;6257;57.634;18.310;2024-02-04T10:52:43;6.37;;;0.90;;
12385;SDS011;6257;57.634;18.310;2024-02-04T10:55:15;4.53;;;1.20;;
12385;SDS011;6257;57.634;18.310;2024-02-04T10:57:48;6.43;;;2.30;;
12385;SDS011;6257;57.634;18.310;2024-02-04T11:00:16;4.77;;;1.57;;
12385;SDS011;6257;57.634;18.310;2024-02-04T11:02:45;4.43;;;0.80;;
12385;SDS011;6257;57.634;18.310;2024-02-04T11:05:14;4.20;;;0.80;;
12385;SDS011;6257;57.634;18.310;2024-02-04T11:07:43;3.30;;;1.30;;
12385;SDS011;6257;57.634;18.310;2024-02-04T11:10:11;5.23;;;2.40;;
12385;SDS011;6257;57.634;18.310;2024-02-04T11:12:39;5.57;;;2.07;;
12385;SDS011;6257;57.634;18.310;2024-02-04T11:15:10;6.47;;;2.53;;
12385;SDS011;6257;57.634;18.310;2024-02-04T11:20:49;6.23;;;2.10;;
12385;SDS011;6257;57.634;18.310;2024-02-04T11:23:36;5.03;;;2.10;;
12385;SDS011;6257;57.634;18.310;2024-02-04T11:26:11;4.90;;;1.17;;
12385;SDS011;6257;57.634;18.310;2024-02-04T11:28:39;5.70;;;2.00;;
12385;SDS011;6257;57.634;18.310;2024-02-04T11:31:14;5.97;;;1.70;;
12385;SDS011;6257;57.634;18.310;2024-02-04T11:33:43;3.23;;;1.13;;
12385;SDS011;6257;57.634;18.310;2024-02-04T11:36:12;3.93;;;1.13;;
12385;SDS011;6257;57.634;18.310;2024-02-04T11:38:40;4.30;;;1.30;;
12385;SDS011;6257;57.634;18.310;2024-02-04T11:41:08;3.70;;;1.20;;
12385;SDS011;6257;57.634;18.310;2024-02-04T11:43:36;5.00;;;3.17;;
12385;SDS011;6257;57.634;18.310;2024-02-04T11:46:04;6.27;;;1.97;;
12385;SDS011;6257;57.634;18.310;2024-02-04T11:48:33;4.03;;;1.47;;
12385;SDS011;6257;57.634;18.310;2024-02-04T11:51:01;4.53;;;0.90;;
12385;SDS011;6257;57.634;18.310;2024-02-04T11:53:30;3.17;;;1.10;;
12385;SDS011;6257;57.634;18.310;2024-02-04T11:55:58;3.83;;;1.00;;
12385;SDS011;6257;57.634;18.310;2024-02-04T11:58:28;1.43;;;0.90;;
12385;SDS011;6257;57.634;18.310;2024-02-04T12:00:56;3.20;;;1.07;;
12385;SDS011;6257;57.634;18.310;2024-02-04T12:03:29;4.33;;;1.00;;
12385;SDS011;6257;57.634;18.310;2024-02-04T12:05:58;5.43;;;1.70;;
12385;SDS011;6257;57.634;18.310;2024-02-04T12:08:26;1.93;;;0.77;;
12385;SDS011;6257;57.634;18.310;2024-02-04T12:10:53;3.13;;;0.90;;
12385;SDS011;6257;57.634;18.310;2024-02-04T12:13:21;3.80;;;1.03;;
12385;SDS011;6257;57.634;18.310;2024-02-04T12:15:48;3.30;;;0.90;;
12385;SDS011;6257;57.634;18.310;2024-02-04T12:18:15;1.53;;;0.90;;
12385;SDS011;6257;57.634;18.310;2024-02-04T12:20:45;3.77;;;1.70;;
12385;SDS011;6257;57.634;18.310;2024-02-04T12:23:15;2.37;;;1.33;;
12385;SDS011;6257;57.634;18.310;2024-02-04T12:25:43;2.03;;;0.50;;
12385;SDS011;6257;57.634;18.310;2024-02-04T12:28:10;3.03;;;1.17;;
12385;SDS011;6257;57.634;18.310;2024-02-04T12:30:38;3.90;;;1.10;;
12385;SDS011;6257;57.634;18.310;2024-02-04T12:33:05;1.93;;;0.80;;
12385;SDS011;6257;57.634;18.310;2024-02-04T12:35:33;3.00;;;1.10;;
12385;SDS011;6257;57.634;18.310;2024-02-04T12:38:01;3.03;;;1.10;;
12385;SDS011;6257;57.634;18.310;2024-02-04T12:40:30;3.57;;;1.37;;
12385;SDS011;6257;57.634;18.310;2024-02-04T12:42:58;3.77;;;1.40;;
12385;SDS011;6257;57.634;18.310;2024-02-04T12:45:26;3.30;;;0.80;;
12385;SDS011;6257;57.634;18.310;2024-02-04T12:47:55;1.50;;;1.20;;
12385;SDS011;6257;57.634;18.310;2024-02-04T12:50:22;2.83;;;1.50;;
12385;SDS011;6257;57.634;18.310;2024-02-04T12:53:01;3.73;;;1.03;;
12385;SDS011;6257;57.634;18.310;2024-02-04T12:55:32;2.63;;;1.00;;
12385;SDS011;6257;57.634;18.310;2024-02-04T12:58:03;2.07;;;0.83;;
12385;SDS011;6257;57.634;18.310;2024-02-04T13:00:31;2.97;;;1.13;;
12385;SDS011;6257;57.634;18.310;2024-02-04T13:02:59;4.93;;;1.53;;
12385;SDS011;6257;57.634;18.310;2024-02-04T13:05:26;3.47;;;1.67;;
12385;SDS011;6257;57.634;18.310;2024-02-04T13:07:55;3.93;;;1.23;;
12385;SDS011;6257;57.634;18.310;2024-02-04T13:10:24;3.30;;;1.50;;
12385;SDS011;6257;57.634;18.310;2024-02-04T13:12:59;2.83;;;1.00;;
12385;SDS011;6257;57.634;18.310;2024-02-04T13:15:27;2.60;;;0.83;;
12385;SDS011;6257;57.634;18.310;2024-02-04T13:17:55;4.70;;;1.40;;
12385;SDS011;6257;57.634;18.310;2024-02-04T13:20:23;5.07;;;2.23;;
12385;SDS011;6257;57.634;18.310;2024-02-04T13:22:50;10.00;;;5.57;;
12385;SDS011;6257;57.634;18.310;2024-02-04T13:25:18;11.07;;;4.40;;
12385;SDS011;6257;57.634;18.310;2024-02-04T13:27:46;4.93;;;2.43;;
12385;SDS011;6257;57.634;18.310;2024-02-04T13:30:15;3.40;;;1.40;;
12385;SDS011;6257;57.634;18.310;2024-02-04T13:32:42;4.43;;;1.80;;
12385;SDS011;6257;57.634;18.310;2024-02-04T13:35:10;1.90;;;1.30;;
12385;SDS011;6257;57.634;18.310;2024-02-04T13:37:38;10.27;;;7.50;;
12385;SDS011;6257;57.634;18.310;2024-02-04T13:40:06;2.73;;;1.53;;
12385;SDS011;6257;57.634;18.310;2024-02-04T13:42:35;2.27;;;1.07;;
12385;SDS011;6257;57.634;18.310;2024-02-04T13:45:02;3.07;;;2.47;;
12385;SDS011;6257;57.634;18.310;2024-02-04T13:47:32;0.33;;;0.30;;
12385;SDS011;6257;57.634;18.310;2024-02-04T13:49:59;1.17;;;0.33;;
12385;SDS011;6257;57.634;18.310;2024-02-04T13:52:26;3.73;;;0.60;;
12385;SDS011;6257;57.634;18.310;2024-02-04T13:54:53;2.70;;;0.60;;
12385;SDS011;6257;57.634;18.310;2024-02-04T13:57:21;1.20;;;0.40;;
12385;SDS011;6257;57.634;18.310;2024-02-04T13:59:48;2.13;;;0.40;;
12385;SDS011;6257;57.634;18.310;2024-02-04T14:02:15;1.97;;;0.40;;
12385;SDS011;6257;57.634;18.310;2024-02-04T14:04:44;2.80;;;0.90;;
12385;SDS011;6257;57.634;18.310;2024-02-04T14:07:12;2.70;;;0.80;;
12385;SDS011;6257;57.634;18.310;2024-02-04T14:09:39;4.40;;;1.63;;
12385;SDS011;6257;57.634;18.310;2024-02-04T14:12:06;2.53;;;0.90;;
12385;SDS011;6257;57.634;18.310;2024-02-04T14:14:33;3.63;;;0.80;;
12385;SDS011;6257;57.634;18.310;2024-02-04T14:17:01;2.97;;;1.00;;
12385;SDS011;6257;57.634;18.310;2024-02-04T14:19:28;3.70;;;2.40;;
12385;SDS011;6257;57.634;18.310;2024-02-04T14:21:56;3.20;;;0.90;;
12385;SDS011;6257;57.634;18.310;2024-02-04T14:24:23;2.67;;;0.87;;
12385;SDS011;6257;57.634;18.310;2024-02-04T14:26:55;1.67;;;0.73;;
12385;SDS011;6257;57.634;18.310;2024-02-04T14:29:23;3.97;;;1.50;;
12385;SDS011;6257;57.634;18.310;2024-02-04T14:31:50;2.70;;;0.87;;
12385;SDS011;6257;57.634;18.310;2024-02-04T14:34:17;2.20;;;0.60;;
12385;SDS011;6257;57.634;18.310;2024-02-04T14:36:45;11.27;;;6.00;;
12385;SDS011;6257;57.634;18.310;2024-02-04T14:39:13;19.57;;;11.53;;
12385;SDS011;6257;57.634;18.310;2024-02-04T14:41:41;22.57;;;13.33;;
12385;SDS011;6257;57.634;18.310;2024-02-04T14:44:08;9.67;;;5.90;;
12385;SDS011;6257;57.634;18.310;2024-02-04T14:46:36;12.27;;;7.70;;
12385;SDS011;6257;57.634;18.310;2024-02-04T14:49:03;5.40;;;3.00;;